sensor_id;sensor_type;location;lat;lon;timestamp;P1;durP1;ratioP1;P2;durP2;ratioP2
48285;SDS011;34102;47.716;10.296;2023-11-21T03:48:04;3.25;;;0.30;;
48285;SDS011;34102;47.716;10.296;2023-11-21T03:50:31;2.05;;;0.32;;
48285;SDS011;34102;47.716;10.296;2023-11-21T03:52:58;3.25;;;0.70;;
48285;SDS011;34102;47.716;10.296;2023-11-21T03:55:23;2.58;;;1.27;;
48285;SDS011;34102;47.716;10.296;2023-11-21T03:57:51;5.07;;;0.50;;
48285;SDS011;34102;47.716;10.296;2023-11-21T04:00:18;2.58;;;0.30;;
48285;SDS011;34102;47.716;10.296;2023-11-21T04:02:45;2.20;;;0.52;;
48285;SDS011;34102;47.716;10.296;2023-11-21T04:05:11;4.93;;;0.40;;
48285;SDS011;34102;47.716;10.296;2023-11-21T04:07:37;3.33;;;0.85;;
48285;SDS011;34102;47.716;10.296;2023-11-21T04:10:04;1.38;;;0.60;;
48285;SDS011;34102;47.716;10.296;2023-11-21T04:12:29;3.80;;;0.70;;
48285;SDS011;34102;47.716;10.296;2023-11-21T04:14:54;3.28;;;0.70;;
48285;SDS011;34102;47.716;10.296;2023-11-21T04:17:20;4.00;;;0.55;;
48285;SDS011;34102;47.716;10.296;2023-11-21T04:19:46;5.90;;;0.75;;
48285;SDS011;34102;47.716;10.296;2023-11-21T04:22:13;3.75;;;0.75;;
48285;SDS011;34102;47.716;10.296;2023-11-21T04:24:39;5.38;;;0.85;;
48285;SDS011;34102;47.716;10.296;2023-11-21T04:27:05;4.78;;;0.70;;
48285;SDS011;34102;47.716;10.296;2023-11-21T04:29:30;2.47;;;0.47;;
48285;SDS011;34102;47.716;10.296;2023-11-21T04:31:55;2.00;;;0.50;;
48285;SDS011;34102;47.716;10.296;2023-11-21T04:34:21;3.03;;;0.60;;
48285;SDS011;34102;47.716;10.296;2023-11-21T04:36:46;2.90;;;0.45;;
48285;SDS011;34102;47.716;10.296;2023-11-21T04:39:11;5.03;;;1.00;;
48285;SDS011;34102;47.716;10.296;2023-11-21T04:41:37;4.03;;;0.77;;
48285;SDS011;34102;47.716;10.296;2023-11-21T04:44:05;1.70;;;0.50;;
48285;SDS011;34102;47.716;10.296;2023-11-21T04:46:30;3.58;;;0.60;;
48285;SDS011;34102;47.716;10.296;2023-11-21T04:48:59;5.47;;;0.52;;
48285;SDS011;34102;47.716;10.296;2023-11-21T04:51:24;2.88;;;0.80;;
48285;SDS011;34102;47.716;10.296;2023-11-21T04:53:49;3.05;;;0.70;;
48285;SDS011;34102;47.716;10.296;2023-11-21T04:56:15;2.05;;;0.50;;
48285;SDS011;34102;47.716;10.296;2023-11-21T04:58:41;5.55;;;0.40;;
48285;SDS011;34102;47.716;10.296;2023-11-21T05:01:09;2.92;;;0.30;;
48285;SDS011;34102;47.716;10.296;2023-11-21T05:03:35;2.83;;;0.30;;
48285;SDS011;34102;47.716;10.296;2023-11-21T05:06:01;1.58;;;0.43;;
48285;SDS011;34102;47.716;10.296;2023-11-21T05:08:27;0.88;;;0.28;;
48285;SDS011;34102;47.716;10.296;2023-11-21T05:10:54;4.15;;;0.30;;
48285;SDS011;34102;47.716;10.296;2023-11-21T05:13:20;0.80;;;0.30;;
48285;SDS011;34102;47.716;10.296;2023-11-21T05:15:45;1.63;;;0.30;;
48285;SDS011;34102;47.716;10.296;2023-11-21T05:18:11;1.58;;;0.28;;
48285;SDS011;34102;47.716;10.296;2023-11-21T05:20:38;1.08;;;0.30;;
48285;SDS011;34102;47.716;10.296;2023-11-21T05:23:04;1.83;;;0.20;;
48285;SDS011;34102;47.716;10.296;2023-11-21T05:25:30;1.48;;;0.35;;
48285;SDS011;34102;47.716;10.296;2023-11-21T05:27:55;2.20;;;0.20;;
48285;SDS011;34102;47.716;10.296;2023-11-21T05:30:21;1.77;;;0.50;;
48285;SDS011;34102;47.716;10.296;2023-11-21T05:32:47;2.55;;;0.20;;
48285;SDS011;34102;47.716;10.296;2023-11-21T05:35:16;0.88;;;0.20;;
48285;SDS011;34102;47.716;10.296;2023-11-21T05:37:44;0.93;;;0.20;;
48285;SDS011;34102;47.716;10.296;2023-11-21T05:40:10;0.75;;;0.30;;
48285;SDS011;34102;47.716;10.296;2023-11-21T05:42:36;1.45;;;0.20;;
48285;SDS011;34102;47.716;10.296;2023-11-21T05:45:01;2.05;;;0.10;;
48285;SDS011;34102;47.716;10.296;2023-11-21T05:50:01;1.80;;;0.40;;
48285;SDS011;34102;47.716;10.296;2023-11-21T05:52:27;0.73;;;0.20;;
48285;SDS011;34102;47.716;10.296;2023-11-21T05:54:52;0.52;;;0.17;;
48285;SDS011;34102;47.716;10.296;2023-11-21T05:57:24;0.32;;;0.10;;
48285;SDS011;34102;47.716;10.296;2023-11-21T05:59:49;0.50;;;0.10;;
48285;SDS011;34102;47.716;10.296;2023-11-21T06:02:14;0.88;;;0.20;;
48285;SDS011;34102;47.716;10.296;2023-11-21T06:04:41;0.98;;;0.20;;
48285;SDS011;34102;47.716;10.296;2023-11-21T06:07:06;0.90;;;0.35;;
48285;SDS011;34102;47.716;10.296;2023-11-21T06:09:32;1.35;;;0.35;;
48285;SDS011;34102;47.716;10.296;2023-11-21T06:11:57;5.43;;;3.08;;
48285;SDS011;34102;47.716;10.296;2023-11-21T06:14:23;3.38;;;0.82;;
48285;SDS011;34102;47.716;10.296;2023-11-21T06:16:49;15.02;;;4.05;;
48285;SDS011;34102;47.716;10.296;2023-11-21T06:19:17;1.08;;;0.40;;
48285;SDS011;34102;47.716;10.296;2023-11-21T06:21:49;4.55;;;0.50;;
48285;SDS011;34102;47.716;10.296;2023-11-21T06:24:14;3.25;;;1.08;;
48285;SDS011;34102;47.716;10.296;2023-11-21T06:26:40;1.25;;;0.20;;
48285;SDS011;34102;47.716;10.296;2023-11-21T06:29:06;1.38;;;0.40;;
48285;SDS011;34102;47.716;10.296;2023-11-21T11:01:31;0.75;;;0.32;;
48285;SDS011;34102;47.716;10.296;2023-11-21T11:04:01;0.35;;;0.10;;
48285;SDS011;34102;47.716;10.296;2023-11-21T11:06:31;0.88;;;0.35;;
48285;SDS011;34102;47.716;10.296;2023-11-21T11:09:01;1.92;;;0.20;;
48285;SDS011;34102;47.716;10.296;2023-11-21T11:11:27;0.88;;;0.10;;
48285;SDS011;34102;47.716;10.296;2023-11-21T11:13:54;0.40;;;0.20;;
48285;SDS011;34102;47.716;10.296;2023-11-21T11:16:20;0.80;;;0.20;;
48285;SDS011;34102;47.716;10.296;2023-11-21T11:18:46;0.30;;;0.10;;
48285;SDS011;34102;47.716;10.296;2023-11-21T11:28:52;0.40;;;0.10;;
48285;SDS011;34102;47.716;10.296;2023-11-21T11:31:38;0.30;;;0.20;;
48285;SDS011;34102;47.716;10.296;2023-11-21T11:37:02;1.15;;;0.10;;
48285;SDS011;34102;47.716;10.296;2023-11-21T11:39:37;0.43;;;0.25;;
48285;SDS011;34102;47.716;10.296;2023-11-21T11:42:03;0.98;;;0.15;;
48285;SDS011;34102;47.716;10.296;2023-11-21T11:47:16;1.75;;;0.20;;
48285;SDS011;34102;47.716;10.296;2023-11-21T11:52:36;0.70;;;0.10;;
48285;SDS011;34102;47.716;10.296;2023-11-21T11:55:27;0.85;;;0.10;;
48285;SDS011;34102;47.716;10.296;2023-11-21T11:57:56;0.17;;;0.03;;
48285;SDS011;34102;47.716;10.296;2023-11-21T12:00:42;1.05;;;0.10;;
48285;SDS011;34102;47.716;10.296;2023-11-21T12:03:07;0.35;;;0.10;;
48285;SDS011;34102;47.716;10.296;2023-11-21T12:05:35;0.98;;;0.32;;
48285;SDS011;34102;47.716;10.296;2023-11-21T12:08:04;0.95;;;0.20;;
48285;SDS011;34102;47.716;10.296;2023-11-21T12:10:30;0.50;;;0.10;;
48285;SDS011;34102;47.716;10.296;2023-11-21T12:12:58;0.47;;;0.10;;
48285;SDS011;34102;47.716;10.296;2023-11-21T12:15:24;0.47;;;0.13;;
48285;SDS011;34102;47.716;10.296;2023-11-21T12:17:50;2.30;;;0.10;;
48285;SDS011;34102;47.716;10.296;2023-11-21T12:20:18;0.50;;;0.28;;
48285;SDS011;34102;47.716;10.296;2023-11-21T12:22:45;6.63;;;3.17;;
48285;SDS011;34102;47.716;10.296;2023-11-21T12:25:13;1.67;;;0.75;;
48285;SDS011;34102;47.716;10.296;2023-11-21T12:27:41;0.73;;;0.30;;
48285;SDS011;34102;47.716;10.296;2023-11-21T12:30:07;1.88;;;0.90;;
48285;SDS011;34102;47.716;10.296;2023-11-21T12:32:42;1.20;;;0.47;;
48285;SDS011;34102;47.716;10.296;2023-11-21T12:35:09;0.95;;;0.30;;
48285;SDS011;34102;47.716;10.296;2023-11-21T12:37:36;1.50;;;0.52;;
48285;SDS011;34102;47.716;10.296;2023-11-21T12:40:03;4.32;;;1.63;;
48285;SDS011;34102;47.716;10.296;2023-11-21T12:42:29;0.93;;;0.45;;
48285;SDS011;34102;47.716;10.296;2023-11-21T12:45:07;3.75;;;1.23;;
48285;SDS011;34102;47.716;10.296;2023-11-21T12:47:34;1.95;;;0.20;;
48285;SDS011;34102;47.716;10.296;2023-11-21T12:50:02;1.95;;;0.28;;
48285;SDS011;34102;47.716;10.296;2023-11-21T12:52:30;3.60;;;0.50;;
48285;SDS011;34102;47.716;10.296;2023-11-21T12:54:56;2.00;;;0.20;;
48285;SDS011;34102;47.716;10.296;2023-11-21T12:57:25;0.63;;;0.20;;
48285;SDS011;34102;47.716;10.296;2023-11-21T12:59:56;0.88;;;0.20;;
48285;SDS011;34102;47.716;10.296;2023-11-21T13:02:25;0.20;;;0.08;;
48285;SDS011;34102;47.716;10.296;2023-11-21T13:04:52;0.50;;;0.10;;
48285;SDS011;34102;47.716;10.296;2023-11-21T13:07:19;0.00;;;0.00;;
48285;SDS011;34102;47.716;10.296;2023-11-21T13:09:46;0.10;;;0.00;;
48285;SDS011;34102;47.716;10.296;2023-11-21T13:12:12;0.25;;;0.00;;
48285;SDS011;34102;47.716;10.296;2023-11-21T13:14:39;0.00;;;0.00;;
48285;SDS011;34102;47.716;10.296;2023-11-21T13:17:05;0.30;;;0.00;;
48285;SDS011;34102;47.716;10.296;2023-11-21T13:19:32;0.10;;;0.05;;
48285;SDS011;34102;47.716;10.296;2023-11-21T13:21:57;0.20;;;0.00;;
48285;SDS011;34102;47.716;10.296;2023-11-21T13:24:23;0.43;;;0.20;;
48285;SDS011;34102;47.716;10.296;2023-11-21T13:26:51;0.40;;;0.15;;
48285;SDS011;34102;47.716;10.296;2023-11-21T13:29:16;0.30;;;0.10;;
48285;SDS011;34102;47.716;10.296;2023-11-21T13:31:42;0.22;;;0.10;;
48285;SDS011;34102;47.716;10.296;2023-11-21T13:34:10;1.05;;;0.15;;
48285;SDS011;34102;47.716;10.296;2023-11-21T13:36:42;0.50;;;0.20;;
48285;SDS011;34102;47.716;10.296;2023-11-21T13:39:07;0.30;;;0.15;;
48285;SDS011;34102;47.716;10.296;2023-11-21T13:41:36;0.80;;;0.17;;
48285;SDS011;34102;47.716;10.296;2023-11-21T13:44:03;1.50;;;0.50;;
48285;SDS011;34102;47.716;10.296;2023-11-21T13:46:34;0.52;;;0.20;;
48285;SDS011;34102;47.716;10.296;2023-11-21T13:49:06;0.82;;;0.30;;
48285;SDS011;34102;47.716;10.296;2023-11-21T13:51:40;0.55;;;0.20;;
48285;SDS011;34102;47.716;10.296;2023-11-21T13:54:28;0.63;;;0.20;;
48285;SDS011;34102;47.716;10.296;2023-11-21T13:56:53;0.55;;;0.10;;
48285;SDS011;34102;47.716;10.296;2023-11-21T13:59:23;1.35;;;0.25;;
48285;SDS011;34102;47.716;10.296;2023-11-21T14:01:51;0.20;;;0.03;;
48285;SDS011;34102;47.716;10.296;2023-11-21T14:04:42;0.82;;;0.20;;
48285;SDS011;34102;47.716;10.296;2023-11-21T14:07:21;1.20;;;0.63;;
48285;SDS011;34102;47.716;10.296;2023-11-21T14:10:03;0.93;;;0.40;;
48285;SDS011;34102;47.716;10.296;2023-11-21T14:12:30;0.77;;;0.40;;
48285;SDS011;34102;47.716;10.296;2023-11-21T14:14:59;0.77;;;0.20;;
48285;SDS011;34102;47.716;10.296;2023-11-21T14:17:26;0.88;;;0.50;;
48285;SDS011;34102;47.716;10.296;2023-11-21T14:19:55;1.58;;;0.38;;
48285;SDS011;34102;47.716;10.296;2023-11-21T14:22:21;0.32;;;0.20;;
48285;SDS011;34102;47.716;10.296;2023-11-21T14:24:46;1.50;;;0.40;;
48285;SDS011;34102;47.716;10.296;2023-11-21T14:27:16;0.68;;;0.20;;
48285;SDS011;34102;47.716;10.296;2023-11-21T14:29:43;1.05;;;0.38;;
48285;SDS011;34102;47.716;10.296;2023-11-21T14:32:10;0.90;;;0.30;;
48285;SDS011;34102;47.716;10.296;2023-11-21T14:34:35;1.05;;;0.50;;
48285;SDS011;34102;47.716;10.296;2023-11-21T14:37:02;1.80;;;0.68;;
48285;SDS011;34102;47.716;10.296;2023-11-21T14:39:28;0.70;;;0.30;;
48285;SDS011;34102;47.716;10.296;2023-11-21T14:41:54;1.00;;;0.50;;
48285;SDS011;34102;47.716;10.296;2023-11-21T14:44:21;0.35;;;0.20;;
48285;SDS011;34102;47.716;10.296;2023-11-21T14:46:52;0.63;;;0.20;;
48285;SDS011;34102;47.716;10.296;2023-11-21T14:49:20;3.47;;;1.80;;
48285;SDS011;34102;47.716;10.296;2023-11-21T14:51:55;1.98;;;0.95;;
48285;SDS011;34102;47.716;10.296;2023-11-21T14:54:24;0.85;;;0.50;;
48285;SDS011;34102;47.716;10.296;2023-11-21T14:57:05;1.10;;;0.40;;
48285;SDS011;34102;47.716;10.296;2023-11-21T14:59:45;1.13;;;0.38;;
48285;SDS011;34102;47.716;10.296;2023-11-21T15:02:17;1.20;;;0.40;;
48285;SDS011;34102;47.716;10.296;2023-11-21T15:04:46;1.38;;;0.22;;
48285;SDS011;34102;47.716;10.296;2023-11-21T15:07:13;0.85;;;0.30;;
48285;SDS011;34102;47.716;10.296;2023-11-21T15:09:39;0.52;;;0.30;;
48285;SDS011;34102;47.716;10.296;2023-11-21T15:12:10;0.80;;;0.40;;
48285;SDS011;34102;47.716;10.296;2023-11-21T15:17:09;1.33;;;0.68;;
48285;SDS011;34102;47.716;10.296;2023-11-21T15:19:36;1.63;;;0.45;;
48285;SDS011;34102;47.716;10.296;2023-11-21T15:22:02;1.58;;;0.55;;
48285;SDS011;34102;47.716;10.296;2023-11-21T15:24:33;1.00;;;0.30;;
48285;SDS011;34102;47.716;10.296;2023-11-21T15:26:59;1.10;;;0.60;;
48285;SDS011;34102;47.716;10.296;2023-11-21T15:29:24;0.70;;;0.32;;
48285;SDS011;34102;47.716;10.296;2023-11-21T15:31:52;0.98;;;0.40;;
48285;SDS011;34102;47.716;10.296;2023-11-21T15:34:22;1.83;;;0.47;;
48285;SDS011;34102;47.716;10.296;2023-11-21T15:36:49;0.90;;;0.40;;
48285;SDS011;34102;47.716;10.296;2023-11-21T15:39:20;2.88;;;0.30;;
48285;SDS011;34102;47.716;10.296;2023-11-21T15:41:54;1.17;;;0.80;;
48285;SDS011;34102;47.716;10.296;2023-11-21T15:44:21;1.23;;;0.60;;
48285;SDS011;34102;47.716;10.296;2023-11-21T15:46:49;2.15;;;1.10;;
48285;SDS011;34102;47.716;10.296;2023-11-21T15:49:14;1.75;;;0.80;;
48285;SDS011;34102;47.716;10.296;2023-11-21T15:51:44;2.40;;;0.88;;
48285;SDS011;34102;47.716;10.296;2023-11-21T15:54:21;3.25;;;1.30;;
48285;SDS011;34102;47.716;10.296;2023-11-21T15:56:48;2.85;;;1.50;;
48285;SDS011;34102;47.716;10.296;2023-11-21T15:59:15;1.65;;;0.68;;
48285;SDS011;34102;47.716;10.296;2023-11-21T16:01:42;2.75;;;0.63;;
48285;SDS011;34102;47.716;10.296;2023-11-21T16:04:13;0.80;;;0.35;;
48285;SDS011;34102;47.716;10.296;2023-11-21T16:06:42;2.45;;;0.50;;
48285;SDS011;34102;47.716;10.296;2023-11-21T16:09:07;1.15;;;0.47;;
48285;SDS011;34102;47.716;10.296;2023-11-21T16:11:44;0.60;;;0.30;;
48285;SDS011;34102;47.716;10.296;2023-11-21T16:14:11;1.30;;;0.40;;
48285;SDS011;34102;47.716;10.296;2023-11-21T16:16:37;1.40;;;0.40;;
48285;SDS011;34102;47.716;10.296;2023-11-21T16:19:02;1.55;;;0.90;;
48285;SDS011;34102;47.716;10.296;2023-11-21T16:21:29;1.67;;;0.65;;
48285;SDS011;34102;47.716;10.296;2023-11-21T16:23:55;1.63;;;0.90;;
48285;SDS011;34102;47.716;10.296;2023-11-21T16:26:23;4.78;;;0.98;;
48285;SDS011;34102;47.716;10.296;2023-11-21T16:28:49;1.65;;;0.70;;
48285;SDS011;34102;47.716;10.296;2023-11-21T16:31:22;1.70;;;1.00;;
48285;SDS011;34102;47.716;10.296;2023-11-21T16:33:48;4.38;;;0.90;;
48285;SDS011;34102;47.716;10.296;2023-11-21T16:36:14;2.00;;;0.95;;
48285;SDS011;34102;47.716;10.296;2023-11-21T16:38:43;2.30;;;1.30;;
48285;SDS011;34102;47.716;10.296;2023-11-21T16:41:09;2.53;;;1.10;;
48285;SDS011;34102;47.716;10.296;2023-11-21T16:43:35;2.33;;;1.20;;
48285;SDS011;34102;47.716;10.296;2023-11-21T16:46:00;1.77;;;1.45;;
48285;SDS011;34102;47.716;10.296;2023-11-21T16:48:26;1.98;;;1.30;;
48285;SDS011;34102;47.716;10.296;2023-11-21T16:50:52;2.33;;;1.17;;
48285;SDS011;34102;47.716;10.296;2023-11-21T16:53:20;2.53;;;1.77;;
48285;SDS011;34102;47.716;10.296;2023-11-21T16:55:46;2.50;;;1.30;;
48285;SDS011;34102;47.716;10.296;2023-11-21T16:58:12;2.92;;;1.77;;
48285;SDS011;34102;47.716;10.296;2023-11-21T17:00:39;6.30;;;3.17;;
48285;SDS011;34102;47.716;10.296;2023-11-21T17:03:05;4.90;;;2.72;;
48285;SDS011;34102;47.716;10.296;2023-11-21T17:05:34;5.35;;;3.10;;
48285;SDS011;34102;47.716;10.296;2023-11-21T17:07:59;4.10;;;2.90;;
48285;SDS011;34102;47.716;10.296;2023-11-21T17:10:26;4.28;;;2.63;;
48285;SDS011;34102;47.716;10.296;2023-11-21T17:12:52;5.97;;;3.17;;
48285;SDS011;34102;47.716;10.296;2023-11-21T17:15:18;3.97;;;2.20;;
48285;SDS011;34102;47.716;10.296;2023-11-21T17:17:45;5.20;;;3.33;;
48285;SDS011;34102;47.716;10.296;2023-11-21T17:20:11;5.88;;;3.05;;
48285;SDS011;34102;47.716;10.296;2023-11-21T17:22:38;6.22;;;3.28;;
48285;SDS011;34102;47.716;10.296;2023-11-21T17:25:05;4.15;;;3.05;;
48285;SDS011;34102;47.716;10.296;2023-11-21T17:27:37;4.00;;;2.90;;
48285;SDS011;34102;47.716;10.296;2023-11-21T17:30:03;4.40;;;2.55;;
48285;SDS011;34102;47.716;10.296;2023-11-21T17:32:28;4.43;;;2.80;;
48285;SDS011;34102;47.716;10.296;2023-11-21T17:34:54;4.32;;;2.83;;
48285;SDS011;34102;47.716;10.296;2023-11-21T17:37:20;3.92;;;2.92;;
48285;SDS011;34102;47.716;10.296;2023-11-21T17:39:49;5.68;;;3.90;;
48285;SDS011;34102;47.716;10.296;2023-11-21T17:42:15;4.05;;;2.83;;
48285;SDS011;34102;47.716;10.296;2023-11-21T17:44:41;7.47;;;3.17;;
48285;SDS011;34102;47.716;10.296;2023-11-21T17:47:07;5.43;;;3.35;;
48285;SDS011;34102;47.716;10.296;2023-11-21T17:49:34;5.15;;;3.65;;
48285;SDS011;34102;47.716;10.296;2023-11-21T17:52:00;5.70;;;3.30;;
48285;SDS011;34102;47.716;10.296;2023-11-21T17:54:25;5.70;;;3.30;;
48285;SDS011;34102;47.716;10.296;2023-11-21T17:56:52;3.50;;;2.80;;
48285;SDS011;34102;47.716;10.296;2023-11-21T17:59:18;5.25;;;2.58;;
48285;SDS011;34102;47.716;10.296;2023-11-21T18:01:43;5.05;;;2.97;;
48285;SDS011;34102;47.716;10.296;2023-11-21T18:04:08;5.05;;;2.90;;
48285;SDS011;34102;47.716;10.296;2023-11-21T18:09:19;5.43;;;3.08;;
48285;SDS011;34102;47.716;10.296;2023-11-21T18:11:48;4.43;;;2.92;;
48285;SDS011;34102;47.716;10.296;2023-11-21T18:14:13;6.50;;;3.58;;
48285;SDS011;34102;47.716;10.296;2023-11-21T18:16:38;5.80;;;3.70;;
48285;SDS011;34102;47.716;10.296;2023-11-21T18:19:07;7.13;;;3.67;;
48285;SDS011;34102;47.716;10.296;2023-11-21T18:21:37;5.13;;;3.70;;
48285;SDS011;34102;47.716;10.296;2023-11-21T18:24:08;3.72;;;2.58;;
48285;SDS011;34102;47.716;10.296;2023-11-21T18:26:35;5.22;;;3.40;;
48285;SDS011;34102;47.716;10.296;2023-11-21T18:29:02;10.82;;;6.75;;
48285;SDS011;34102;47.716;10.296;2023-11-21T18:31:30;5.03;;;3.13;;
48285;SDS011;34102;47.716;10.296;2023-11-21T18:33:55;5.88;;;2.78;;
48285;SDS011;34102;47.716;10.296;2023-11-21T18:36:24;5.30;;;3.28;;
48285;SDS011;34102;47.716;10.296;2023-11-21T18:38:50;6.72;;;4.20;;
48285;SDS011;34102;47.716;10.296;2023-11-21T18:41:21;5.70;;;3.75;;
48285;SDS011;34102;47.716;10.296;2023-11-21T18:43:47;5.05;;;4.03;;
48285;SDS011;34102;47.716;10.296;2023-11-21T18:46:13;5.47;;;3.58;;
48285;SDS011;34102;47.716;10.296;2023-11-21T18:48:38;5.20;;;3.55;;
48285;SDS011;34102;47.716;10.296;2023-11-21T18:51:04;11.13;;;5.35;;
48285;SDS011;34102;47.716;10.296;2023-11-21T18:53:29;8.77;;;5.47;;
48285;SDS011;34102;47.716;10.296;2023-11-21T18:55:58;7.28;;;4.93;;
48285;SDS011;34102;47.716;10.296;2023-11-21T18:58:24;8.68;;;5.20;;
48285;SDS011;34102;47.716;10.296;2023-11-21T19:00:55;6.72;;;4.32;;
48285;SDS011;34102;47.716;10.296;2023-11-21T19:03:20;6.97;;;5.00;;
48285;SDS011;34102;47.716;10.296;2023-11-21T19:05:46;9.27;;;6.00;;
48285;SDS011;34102;47.716;10.296;2023-11-21T19:08:17;6.95;;;4.70;;
48285;SDS011;34102;47.716;10.296;2023-11-21T19:10:43;6.05;;;4.15;;
48285;SDS011;34102;47.716;10.296;2023-11-21T19:13:09;7.22;;;4.75;;
48285;SDS011;34102;47.716;10.296;2023-11-21T19:15:36;4.32;;;3.90;;
48285;SDS011;34102;47.716;10.296;2023-11-21T19:18:05;5.75;;;4.03;;
48285;SDS011;34102;47.716;10.296;2023-11-21T19:20:30;4.72;;;3.30;;
48285;SDS011;34102;47.716;10.296;2023-11-21T19:23:03;3.90;;;2.90;;
48285;SDS011;34102;47.716;10.296;2023-11-21T19:25:30;5.47;;;3.50;;
48285;SDS011;34102;47.716;10.296;2023-11-21T19:27:58;3.92;;;3.17;;
48285;SDS011;34102;47.716;10.296;2023-11-21T19:30:24;4.82;;;3.08;;
48285;SDS011;34102;47.716;10.296;2023-11-21T19:32:49;3.92;;;2.90;;
48285;SDS011;34102;47.716;10.296;2023-11-21T19:35:21;5.95;;;4.30;;
48285;SDS011;34102;47.716;10.296;2023-11-21T19:37:47;6.40;;;4.05;;
48285;SDS011;34102;47.716;10.296;2023-11-21T19:40:12;4.45;;;3.35;;
48285;SDS011;34102;47.716;10.296;2023-11-21T19:42:38;1.63;;;1.30;;
48285;SDS011;34102;47.716;10.296;2023-11-21T19:45:05;1.40;;;1.00;;
48285;SDS011;34102;47.716;10.296;2023-11-21T19:47:31;2.10;;;1.48;;
48285;SDS011;34102;47.716;10.296;2023-11-21T19:50:00;1.85;;;1.23;;
48285;SDS011;34102;47.716;10.296;2023-11-21T19:52:26;1.60;;;1.25;;
48285;SDS011;34102;47.716;10.296;2023-11-21T19:54:51;2.05;;;1.80;;
48285;SDS011;34102;47.716;10.296;2023-11-21T19:57:18;4.65;;;2.40;;
48285;SDS011;34102;47.716;10.296;2023-11-21T19:59:45;2.70;;;1.77;;
48285;SDS011;34102;47.716;10.296;2023-11-21T20:02:11;4.60;;;2.45;;
48285;SDS011;34102;47.716;10.296;2023-11-21T20:04:36;2.55;;;1.92;;
48285;SDS011;34102;47.716;10.296;2023-11-21T20:07:02;2.67;;;1.95;;
48285;SDS011;34102;47.716;10.296;2023-11-21T20:09:31;3.30;;;2.17;;
48285;SDS011;34102;47.716;10.296;2023-11-21T20:11:56;2.67;;;1.95;;
48285;SDS011;34102;47.716;10.296;2023-11-21T20:14:25;3.28;;;2.10;;
48285;SDS011;34102;47.716;10.296;2023-11-21T20:16:51;3.03;;;1.98;;
48285;SDS011;34102;47.716;10.296;2023-11-21T20:19:16;3.40;;;2.53;;
48285;SDS011;34102;47.716;10.296;2023-11-21T20:21:42;2.85;;;1.95;;
48285;SDS011;34102;47.716;10.296;2023-11-21T20:24:10;3.88;;;2.53;;
48285;SDS011;34102;47.716;10.296;2023-11-21T20:26:38;2.88;;;1.98;;
48285;SDS011;34102;47.716;10.296;2023-11-21T20:29:07;2.38;;;1.55;;
48285;SDS011;34102;47.716;10.296;2023-11-21T20:31:34;3.50;;;1.90;;
48285;SDS011;34102;47.716;10.296;2023-11-21T20:34:01;5.28;;;1.88;;
48285;SDS011;34102;47.716;10.296;2023-11-21T20:36:26;2.47;;;1.63;;
48285;SDS011;34102;47.716;10.296;2023-11-21T20:38:52;2.70;;;1.65;;
48285;SDS011;34102;47.716;10.296;2023-11-21T20:41:18;2.85;;;1.58;;
48285;SDS011;34102;47.716;10.296;2023-11-21T20:43:45;2.42;;;1.38;;
48285;SDS011;34102;47.716;10.296;2023-11-21T20:46:10;1.30;;;1.00;;
48285;SDS011;34102;47.716;10.296;2023-11-21T20:48:37;1.02;;;0.60;;
48285;SDS011;34102;47.716;10.296;2023-11-21T20:51:04;0.80;;;0.50;;
48285;SDS011;34102;47.716;10.296;2023-11-21T20:53:29;0.90;;;0.60;;
48285;SDS011;34102;47.716;10.296;2023-11-21T20:55:54;0.82;;;0.50;;
48285;SDS011;34102;47.716;10.296;2023-11-21T20:58:21;1.95;;;0.65;;
48285;SDS011;34102;47.716;10.296;2023-11-21T21:00:47;2.03;;;0.98;;
48285;SDS011;34102;47.716;10.296;2023-11-21T21:03:15;1.17;;;0.52;;
48285;SDS011;34102;47.716;10.296;2023-11-21T21:05:40;1.38;;;0.88;;
48285;SDS011;34102;47.716;10.296;2023-11-21T21:08:08;0.95;;;0.63;;
48285;SDS011;34102;47.716;10.296;2023-11-21T21:10:33;1.85;;;1.00;;
48285;SDS011;34102;47.716;10.296;2023-11-21T21:12:59;1.17;;;0.80;;
48285;SDS011;34102;47.716;10.296;2023-11-21T21:15:24;5.63;;;4.32;;
48285;SDS011;34102;47.716;10.296;2023-11-21T21:17:52;1.50;;;0.95;;
48285;SDS011;34102;47.716;10.296;2023-11-21T21:20:19;1.40;;;1.10;;
48285;SDS011;34102;47.716;10.296;2023-11-21T21:22:48;2.55;;;1.58;;
48285;SDS011;34102;47.716;10.296;2023-11-21T21:25:18;2.08;;;1.77;;
48285;SDS011;34102;47.716;10.296;2023-11-21T21:27:45;1.95;;;1.27;;
48285;SDS011;34102;47.716;10.296;2023-11-21T21:30:10;1.60;;;1.10;;
48285;SDS011;34102;47.716;10.296;2023-11-21T21:32:36;3.28;;;2.03;;
48285;SDS011;34102;47.716;10.296;2023-11-21T21:35:02;1.83;;;1.63;;
48285;SDS011;34102;47.716;10.296;2023-11-21T21:37:31;2.80;;;1.98;;
48285;SDS011;34102;47.716;10.296;2023-11-21T21:39:59;2.47;;;1.83;;
48285;SDS011;34102;47.716;10.296;2023-11-21T21:42:25;2.67;;;2.00;;
48285;SDS011;34102;47.716;10.296;2023-11-21T21:44:51;2.35;;;2.10;;
48285;SDS011;34102;47.716;10.296;2023-11-21T21:47:18;4.72;;;2.80;;
48285;SDS011;34102;47.716;10.296;2023-11-21T21:49:46;2.80;;;2.08;;
48285;SDS011;34102;47.716;10.296;2023-11-21T21:52:12;2.35;;;2.00;;
48285;SDS011;34102;47.716;10.296;2023-11-21T21:54:38;3.30;;;2.17;;
48285;SDS011;34102;47.716;10.296;2023-11-21T21:57:05;2.80;;;2.33;;
48285;SDS011;34102;47.716;10.296;2023-11-21T21:59:31;2.92;;;2.10;;
48285;SDS011;34102;47.716;10.296;2023-11-21T22:01:56;2.35;;;2.15;;
48285;SDS011;34102;47.716;10.296;2023-11-21T22:04:23;4.15;;;2.30;;
48285;SDS011;34102;47.716;10.296;2023-11-21T22:06:52;3.75;;;2.58;;
48285;SDS011;34102;47.716;10.296;2023-11-21T22:09:18;5.43;;;2.78;;
48285;SDS011;34102;47.716;10.296;2023-11-21T22:11:45;3.63;;;2.78;;
48285;SDS011;34102;47.716;10.296;2023-11-21T22:14:12;5.75;;;3.53;;
48285;SDS011;34102;47.716;10.296;2023-11-21T22:16:37;4.82;;;3.15;;
48285;SDS011;34102;47.716;10.296;2023-11-21T22:19:02;7.55;;;3.50;;
48285;SDS011;34102;47.716;10.296;2023-11-21T22:21:28;5.35;;;3.30;;
48285;SDS011;34102;47.716;10.296;2023-11-21T22:23:57;6.43;;;3.95;;
48285;SDS011;34102;47.716;10.296;2023-11-21T22:26:22;6.22;;;2.83;;
48285;SDS011;34102;47.716;10.296;2023-11-21T22:28:52;3.25;;;2.45;;
